Aviation Digital Data Service (ADDS)

Output produced by METARs form (1440 UTC 29 August 2016)
found at http://www.aviationweather.gov/adds/metars/
 
KMIV 291354Z AUTO 29006KT 10SM CLR 27/19 A3016 RMK AO2 SLP211 T02670194
KMIV 291120Z 2912/3012 00000KT P6SM FEW200 
     FM291400 31004KT P6SM SCT200 
     FM292200 32004KT P6SM SKC 
     FM300200 VRB02KT P6SM SKC